createdAt,value
2018-05-13T00:01:59.770Z,17.60
2018-05-13T00:04:27.212Z,17.70
2018-05-13T00:06:54.668Z,17.90
2018-05-13T00:09:22.114Z,18.10
2018-05-13T00:11:49.564Z,18.20
2018-05-13T00:14:17.010Z,18.00
2018-05-13T00:16:45.221Z,18.20
2018-05-13T00:19:12.677Z,18.20
2018-05-13T00:21:40.124Z,18.20
2018-05-13T00:24:08.336Z,18.10
2018-05-13T00:26:35.759Z,18.10
2018-05-13T00:29:03.217Z,18.00
2018-05-13T00:31:31.421Z,18.00
2018-05-13T00:33:58.862Z,17.90
2018-05-13T00:36:26.317Z,17.90
2018-05-13T00:38:54.532Z,17.70
2018-05-13T00:41:21.990Z,17.70
2018-05-13T00:43:49.455Z,17.60
2018-05-13T00:46:16.910Z,17.50
2018-05-13T00:48:44.366Z,17.40
2018-05-13T00:51:11.828Z,17.40
2018-05-13T00:53:39.305Z,17.30
2018-05-13T00:56:06.738Z,17.20
2018-05-13T00:58:34.953Z,16.90
2018-05-13T01:01:02.384Z,16.90
2018-05-13T01:03:29.847Z,16.80
2018-05-13T01:05:57.309Z,16.80
2018-05-13T01:08:24.751Z,16.70
2018-05-13T01:10:52.988Z,16.60
2018-05-13T01:13:20.429Z,16.60
2018-05-13T01:15:47.889Z,16.60
2018-05-13T01:18:15.336Z,16.70
2018-05-13T01:20:42.797Z,16.80
2018-05-13T01:23:10.996Z,16.60
2018-05-13T01:25:38.450Z,16.60
2018-05-13T01:28:05.896Z,16.40
2018-05-13T01:30:34.116Z,16.10
2018-05-13T01:33:01.551Z,16.00
2018-05-13T01:35:29.011Z,16.10
2018-05-13T01:37:56.456Z,16.40
2018-05-13T01:40:24.691Z,16.40
2018-05-13T01:42:52.195Z,16.40
2018-05-13T01:45:19.575Z,16.20
2018-05-13T01:47:47.046Z,16.20
2018-05-13T01:50:14.496Z,16.40
2018-05-13T01:52:41.967Z,16.50
2018-05-13T01:55:09.417Z,16.60
2018-05-13T01:57:37.632Z,16.40
2018-05-13T02:00:05.106Z,16.40
2018-05-13T02:02:32.543Z,16.10
2018-05-13T02:05:00.004Z,16.00
2018-05-13T02:07:27.444Z,16.20
2018-05-13T02:09:55.682Z,16.40
2018-05-13T02:12:23.158Z,16.40
2018-05-13T02:14:50.597Z,16.50
2018-05-13T02:17:18.063Z,16.60
2018-05-13T02:19:55.292Z,16.60
2018-05-13T02:22:23.525Z,16.60
2018-05-13T02:24:50.980Z,16.60
2018-05-13T02:27:18.448Z,16.50
2018-05-13T02:29:45.888Z,16.50
2018-05-13T02:32:13.349Z,16.50
2018-05-13T02:34:40.798Z,16.40
2018-05-13T02:37:08.245Z,16.40
2018-05-13T02:39:36.463Z,16.40
2018-05-13T02:42:03.977Z,16.40
2018-05-13T02:44:31.380Z,16.40
2018-05-13T02:46:58.840Z,16.20
2018-05-13T02:49:26.299Z,16.20
2018-05-13T02:51:53.768Z,16.20
2018-05-13T02:54:21.205Z,16.00
2018-05-13T02:56:49.432Z,15.70
2018-05-13T02:59:16.881Z,15.60
2018-05-13T03:01:44.342Z,15.50
2018-05-13T03:04:11.833Z,15.40
2018-05-13T03:06:39.284Z,15.70
2018-05-13T03:09:06.754Z,16.00
2018-05-13T03:11:34.187Z,16.30
2018-05-13T03:14:01.644Z,16.50
2018-05-13T03:16:29.120Z,16.50
2018-05-13T03:18:56.640Z,16.50
2018-05-13T03:21:24.001Z,16.40
2018-05-13T03:23:52.310Z,16.20
2018-05-13T03:26:19.771Z,16.20
2018-05-13T03:28:47.211Z,16.20
2018-05-13T03:31:15.408Z,16.40
2018-05-13T03:33:42.882Z,16.40
2018-05-13T03:36:10.328Z,16.50
2018-05-13T03:38:37.781Z,16.60
2018-05-13T03:41:05.995Z,16.50
2018-05-13T03:43:33.441Z,16.50
2018-05-13T03:46:00.879Z,16.30
2018-05-13T03:48:29.108Z,16.40
2018-05-13T03:50:56.571Z,16.30
2018-05-13T03:53:24.025Z,16.50
2018-05-13T03:55:51.476Z,16.50
2018-05-13T03:58:18.953Z,16.20
2018-05-13T04:00:46.425Z,16.20
2018-05-13T04:03:14.638Z,16.30
2018-05-13T04:05:42.856Z,16.20
2018-05-13T04:11:30.828Z,16.10
2018-05-13T04:14:10.148Z,16.10
2018-05-13T04:16:37.607Z,16.00
2018-05-13T04:19:05.074Z,16.00
2018-05-13T04:21:32.533Z,16.00
2018-05-13T04:23:59.983Z,16.00
2018-05-13T04:26:27.462Z,16.00
2018-05-13T04:28:54.898Z,16.20
2018-05-13T04:31:22.348Z,16.00
2018-05-13T04:33:49.794Z,15.80
2018-05-13T04:36:18.008Z,15.80
2018-05-13T04:38:45.468Z,15.80
2018-05-13T04:41:12.937Z,15.80
2018-05-13T04:43:40.406Z,15.80
2018-05-13T04:46:07.841Z,15.90
2018-05-13T04:48:35.320Z,16.00
2018-05-13T04:51:02.762Z,16.00
2018-05-13T04:53:30.970Z,16.10
2018-05-13T04:55:58.433Z,16.00
2018-05-13T04:58:25.878Z,16.10
2018-05-13T05:00:53.327Z,16.00
2018-05-13T05:03:21.551Z,16.00
2018-05-13T05:05:48.991Z,16.00
2018-05-13T05:08:16.448Z,16.00
2018-05-13T05:10:43.902Z,16.00
2018-05-13T05:13:12.125Z,16.00
2018-05-13T05:15:39.584Z,15.90
2018-05-13T05:18:07.811Z,16.00
2018-05-13T05:20:36.027Z,15.80
2018-05-13T05:23:03.485Z,15.70
2018-05-13T05:25:30.937Z,15.50
2018-05-13T05:27:58.400Z,15.50
2018-05-13T05:30:25.840Z,15.80
2018-05-13T05:32:54.067Z,15.90
2018-05-13T05:35:21.526Z,15.90
2018-05-13T05:37:48.997Z,16.00
2018-05-13T05:40:16.453Z,16.00
2018-05-13T05:42:43.914Z,15.90
2018-05-13T05:45:11.394Z,16.00
2018-05-13T05:47:38.839Z,16.10
2018-05-13T05:50:06.302Z,16.10
2018-05-13T05:52:33.751Z,16.00
2018-05-13T05:55:01.207Z,15.90
2018-05-13T05:57:28.665Z,15.60
2018-05-13T05:59:56.119Z,15.60
2018-05-13T06:02:23.560Z,15.50
2018-05-13T06:04:51.775Z,15.40
2018-05-13T06:07:19.367Z,15.40
2018-05-13T06:09:46.716Z,15.50
2018-05-13T06:12:14.282Z,15.60
2018-05-13T06:14:41.623Z,15.50
2018-05-13T06:17:09.111Z,15.70
2018-05-13T06:19:36.606Z,15.50
2018-05-13T06:22:04.005Z,15.60
2018-05-13T06:24:31.451Z,15.50
2018-05-13T06:26:58.903Z,15.40
2018-05-13T06:29:27.120Z,15.60
2018-05-13T06:31:54.579Z,15.60
2018-05-13T06:34:22.044Z,15.70
2018-05-13T06:36:49.505Z,15.70
2018-05-13T06:39:16.956Z,15.60
2018-05-13T06:41:44.422Z,15.60
2018-05-13T06:44:11.853Z,15.60
2018-05-13T06:46:40.067Z,15.60
2018-05-13T06:49:07.522Z,15.60
2018-05-13T06:51:34.984Z,15.50
2018-05-13T06:54:02.428Z,15.40
2018-05-13T06:56:30.703Z,15.60
2018-05-13T06:58:58.141Z,15.60
2018-05-13T07:01:25.605Z,15.70
2018-05-13T07:03:53.783Z,15.50
2018-05-13T07:06:21.248Z,15.50
2018-05-13T07:08:48.738Z,15.30
2018-05-13T07:11:16.197Z,15.40
2018-05-13T07:13:43.660Z,15.20
2018-05-13T07:16:11.316Z,15.40
2018-05-13T07:18:38.761Z,15.50
2018-05-13T07:21:06.199Z,15.30
2018-05-13T07:23:33.661Z,15.10
2018-05-13T07:26:01.117Z,15.20
2018-05-13T07:28:28.564Z,15.10
2018-05-13T07:30:56.021Z,15.40
2018-05-13T07:33:23.480Z,15.20
2018-05-13T07:35:50.961Z,15.10
2018-05-13T07:38:18.416Z,15.20
2018-05-13T07:40:45.849Z,14.90
2018-05-13T07:43:14.072Z,14.90
2018-05-13T07:45:41.516Z,14.90
2018-05-13T07:48:08.968Z,14.90
2018-05-13T07:50:36.404Z,14.60
2018-05-13T07:53:04.658Z,14.70
2018-05-13T07:55:32.101Z,14.60
2018-05-13T07:57:59.564Z,15.00
2018-05-13T08:00:27.000Z,14.70
2018-05-13T08:02:54.444Z,14.80
2018-05-13T08:05:21.888Z,14.70
2018-05-13T08:07:50.122Z,14.50
2018-05-13T08:10:17.587Z,14.50
2018-05-13T08:12:45.043Z,14.90
2018-05-13T08:15:12.593Z,14.50
2018-05-13T08:17:40.026Z,14.20
2018-05-13T08:20:08.268Z,14.50
2018-05-13T08:22:35.705Z,14.40
2018-05-13T08:25:03.209Z,14.30
2018-05-13T08:27:30.671Z,14.40
2018-05-13T08:29:58.112Z,14.40
2018-05-13T08:32:25.559Z,14.40
2018-05-13T08:34:53.007Z,14.30
2018-05-13T08:37:20.458Z,14.40
2018-05-13T08:39:47.911Z,14.20
2018-05-13T08:42:16.867Z,14.40
2018-05-13T08:44:44.409Z,14.40
2018-05-13T08:47:11.879Z,14.30
2018-05-13T08:49:39.365Z,14.10
2018-05-13T08:52:06.823Z,14.10
2018-05-13T08:54:34.285Z,14.10
2018-05-13T08:57:01.753Z,14.20
2018-05-13T08:59:29.272Z,14.00
2018-05-13T09:01:56.727Z,14.00
2018-05-13T09:04:24.181Z,14.00
2018-05-13T09:06:51.648Z,14.00
2018-05-13T09:09:19.114Z,14.00
2018-05-13T09:11:47.314Z,14.30
2018-05-13T09:14:14.863Z,14.20
2018-05-13T09:16:42.237Z,14.20
2018-05-13T09:19:09.717Z,14.20
2018-05-13T09:21:37.180Z,14.10
2018-05-13T09:24:04.639Z,14.00
2018-05-13T09:26:32.167Z,14.20
2018-05-13T09:28:59.552Z,14.30
2018-05-13T09:31:27.003Z,14.40
2018-05-13T09:33:54.486Z,14.30
2018-05-13T09:36:21.988Z,14.30
2018-05-13T09:38:49.444Z,14.30
2018-05-13T09:41:17.666Z,13.90
2018-05-13T09:43:45.114Z,13.90
2018-05-13T09:46:12.666Z,13.50
2018-05-13T09:48:40.882Z,13.70
2018-05-13T09:51:08.355Z,13.70
2018-05-13T09:53:35.830Z,13.70
2018-05-13T09:56:03.280Z,13.60
2018-05-13T09:58:30.784Z,13.70
2018-05-13T10:00:58.236Z,13.90
2018-05-13T10:03:25.723Z,14.00
2018-05-13T10:05:53.954Z,13.80
2018-05-13T10:08:21.413Z,13.80
2018-05-13T10:10:48.911Z,13.70
2018-05-13T10:13:16.378Z,13.80
2018-05-13T10:15:43.840Z,14.00
2018-05-13T10:18:11.296Z,14.20
2018-05-13T10:20:38.763Z,14.30
2018-05-13T10:23:06.227Z,14.10
2018-05-13T10:25:33.706Z,13.80
2018-05-13T10:28:01.976Z,14.10
2018-05-13T10:30:29.408Z,14.10
2018-05-13T10:32:56.884Z,14.20
2018-05-13T10:35:25.865Z,13.70
2018-05-13T10:37:53.324Z,13.70
2018-05-13T10:40:20.765Z,14.10
2018-05-13T10:42:48.229Z,14.20
2018-05-13T10:45:15.706Z,14.40
2018-05-13T10:47:43.175Z,14.50
2018-05-13T10:50:10.634Z,14.50
2018-05-13T10:52:38.100Z,14.10
2018-05-13T10:55:05.558Z,14.60
2018-05-13T10:57:33.002Z,14.30
2018-05-13T11:00:00.458Z,14.30
2018-05-13T11:02:27.918Z,14.10
2018-05-13T11:04:55.355Z,14.20
2018-05-13T11:07:23.613Z,14.50
2018-05-13T11:09:51.072Z,14.50
2018-05-13T11:12:18.565Z,14.70
2018-05-13T11:14:46.799Z,14.70
2018-05-13T11:17:14.283Z,14.60
2018-05-13T11:19:41.746Z,14.50
2018-05-13T11:22:09.234Z,14.60
2018-05-13T11:24:37.491Z,14.20
2018-05-13T11:27:04.946Z,14.20
2018-05-13T11:29:32.388Z,14.40
2018-05-13T11:31:59.880Z,14.60
2018-05-13T11:34:27.316Z,14.10
2018-05-13T11:36:54.783Z,14.00
2018-05-13T11:39:22.272Z,14.00
2018-05-13T11:41:50.530Z,14.40
2018-05-13T11:44:17.990Z,14.40
2018-05-13T11:46:45.538Z,14.50
2018-05-13T11:49:12.928Z,14.20
2018-05-13T11:51:40.381Z,14.00
2018-05-13T11:54:07.841Z,14.30
2018-05-13T11:56:35.300Z,14.10
2018-05-13T11:59:02.765Z,14.40
2018-05-13T12:01:30.213Z,14.50
2018-05-13T12:03:58.472Z,14.60
2018-05-13T12:06:26.609Z,14.50
2018-05-13T12:08:54.099Z,14.60
2018-05-13T12:11:21.581Z,14.80
2018-05-13T12:13:49.029Z,14.90
2018-05-13T12:16:16.485Z,14.40
2018-05-13T12:18:43.933Z,14.20
2018-05-13T12:21:12.152Z,14.30
2018-05-13T12:23:39.676Z,14.30
2018-05-13T12:26:08.043Z,14.50
2018-05-13T12:28:35.556Z,14.50
2018-05-13T12:31:03.013Z,14.40
2018-05-13T12:33:30.465Z,14.30
2018-05-13T12:35:57.908Z,14.40
2018-05-13T12:38:26.150Z,14.40
2018-05-13T12:40:53.614Z,14.40
2018-05-13T12:43:21.076Z,14.40
2018-05-13T12:45:48.517Z,14.20
2018-05-13T12:48:16.026Z,14.20
2018-05-13T12:50:43.475Z,14.40
2018-05-13T12:53:10.949Z,14.40
2018-05-13T12:55:38.388Z,14.10
2018-05-13T12:58:05.857Z,14.10
2018-05-13T13:00:33.317Z,14.20
2018-05-13T13:03:00.763Z,14.00
2018-05-13T13:05:28.306Z,13.90
2018-05-13T13:07:55.781Z,14.30
2018-05-13T13:10:23.237Z,14.50
2018-05-13T13:12:50.704Z,14.30
2018-05-13T13:15:18.219Z,14.30
2018-05-13T13:17:45.621Z,14.60
2018-05-13T13:20:13.078Z,14.20
2018-05-13T13:22:40.519Z,14.30
2018-05-13T13:25:08.733Z,14.40
2018-05-13T13:27:36.185Z,14.40
2018-05-13T13:30:03.667Z,14.50
2018-05-13T13:32:31.125Z,14.40
2018-05-13T13:34:58.572Z,14.20
2018-05-13T13:37:26.031Z,14.40
2018-05-13T13:39:53.480Z,14.40
2018-05-13T13:42:20.922Z,14.20
2018-05-13T13:44:49.137Z,14.40
2018-05-13T13:47:16.621Z,14.40
2018-05-13T13:49:44.795Z,14.60
2018-05-13T13:52:12.252Z,14.60
2018-05-13T13:54:39.723Z,14.70
2018-05-13T13:57:07.171Z,14.60
2018-05-13T13:59:34.685Z,14.70
2018-05-13T14:02:02.088Z,14.70
2018-05-13T14:04:29.540Z,14.70
2018-05-13T14:06:57.123Z,14.50
2018-05-13T14:09:24.581Z,14.30
2018-05-13T14:11:52.078Z,14.30
2018-05-13T14:14:19.533Z,14.30
2018-05-13T14:16:46.990Z,14.20
2018-05-13T14:19:14.453Z,14.30
2018-05-13T14:21:41.926Z,14.50
2018-05-13T14:24:09.378Z,14.70
2018-05-13T14:26:37.596Z,14.30
2018-05-13T14:29:05.825Z,14.30
2018-05-13T14:31:33.273Z,14.30
2018-05-13T14:34:00.737Z,14.50
2018-05-13T14:36:28.198Z,14.30
2018-05-13T14:38:55.775Z,14.20
2018-05-13T14:41:23.213Z,14.20
2018-05-13T14:43:51.485Z,14.20
2018-05-13T14:46:19.720Z,14.00
2018-05-13T14:48:47.920Z,14.30
2018-05-13T14:51:15.379Z,14.30
2018-05-13T14:53:42.819Z,14.50
2018-05-13T14:56:10.302Z,14.10
2018-05-13T14:58:37.744Z,14.20
2018-05-13T15:01:05.213Z,13.90
2018-05-13T15:03:32.669Z,14.10
2018-05-13T15:06:00.888Z,14.20
2018-05-13T15:08:29.098Z,14.10
2018-05-13T15:10:56.560Z,14.10
2018-05-13T15:13:24.017Z,13.80
2018-05-13T15:15:51.522Z,13.70
2018-05-13T15:18:19.003Z,13.60
2018-05-13T15:20:46.448Z,13.80
2018-05-13T15:23:13.898Z,14.00
2018-05-13T15:25:41.335Z,13.70
2018-05-13T15:28:08.811Z,13.80
2018-05-13T15:30:36.261Z,13.90
2018-05-13T15:33:03.721Z,14.20
2018-05-13T15:35:31.219Z,14.20
2018-05-13T15:37:58.678Z,14.20
2018-05-13T15:40:26.126Z,13.70
2018-05-13T15:42:53.704Z,13.80
2018-05-13T15:45:21.046Z,13.80
2018-05-13T15:47:48.511Z,13.90
2018-05-13T15:50:15.960Z,13.90
2018-05-13T15:52:43.416Z,13.80
2018-05-13T15:55:10.936Z,13.90
2018-05-13T15:57:38.317Z,13.70
2018-05-13T16:00:06.520Z,13.50
2018-05-13T16:02:33.977Z,13.40
2018-05-13T16:05:01.408Z,13.50
2018-05-13T16:07:28.862Z,13.70
2018-05-13T16:09:56.307Z,13.70
2018-05-13T16:12:23.772Z,13.70
2018-05-13T16:14:51.969Z,13.90
2018-05-13T16:17:19.427Z,13.80
2018-05-13T16:19:46.904Z,13.70
2018-05-13T16:22:15.140Z,13.70
2018-05-13T16:24:43.372Z,13.50
2018-05-13T16:27:11.611Z,13.50
2018-05-13T16:29:39.822Z,13.40
2018-05-13T16:32:08.038Z,13.50
2018-05-13T16:34:35.476Z,13.50
2018-05-13T16:37:03.690Z,13.60
2018-05-13T16:39:31.144Z,13.60
2018-05-13T16:41:58.604Z,13.80
2018-05-13T16:44:26.084Z,13.80
2018-05-13T16:46:53.528Z,13.80
2018-05-13T16:49:20.988Z,13.40
2018-05-13T16:51:48.441Z,13.60
2018-05-13T16:54:15.917Z,13.50
2018-05-13T16:56:43.363Z,13.60
2018-05-13T16:59:10.824Z,13.50
2018-05-13T17:01:39.039Z,13.30
2018-05-13T17:04:06.509Z,13.30
2018-05-13T17:06:33.951Z,13.40
2018-05-13T17:09:01.414Z,13.70
2018-05-13T17:11:28.881Z,13.70
2018-05-13T17:13:56.334Z,13.50
2018-05-13T17:16:23.809Z,13.30
2018-05-13T17:18:51.265Z,13.20
2018-05-13T17:21:18.718Z,13.20
2018-05-13T17:23:46.188Z,12.90
2018-05-13T17:26:13.653Z,12.80
2018-05-13T17:28:41.114Z,13.10
2018-05-13T17:31:08.577Z,13.00
2018-05-13T17:33:36.020Z,13.30
2018-05-13T17:36:03.473Z,13.40
2018-05-13T17:38:31.754Z,13.30
2018-05-13T17:40:59.957Z,13.10
2018-05-13T17:43:27.421Z,13.10
2018-05-13T17:45:54.872Z,12.60
2018-05-13T17:48:22.343Z,12.60
2018-05-13T17:50:49.811Z,12.70
2018-05-13T17:53:17.267Z,12.90
2018-05-13T17:55:44.720Z,12.90
2018-05-13T18:01:05.470Z,13.00
2018-05-13T18:03:32.927Z,13.10
2018-05-13T18:06:00.376Z,12.70
2018-05-13T18:08:27.832Z,12.60
2018-05-13T18:10:55.294Z,12.40
2018-05-13T18:13:22.739Z,12.70
2018-05-13T18:15:50.957Z,13.00
2018-05-13T18:18:18.435Z,13.00
2018-05-13T18:20:45.908Z,12.90
2018-05-13T18:23:13.356Z,12.80
2018-05-13T18:25:40.814Z,12.90
2018-05-13T18:28:09.190Z,13.00
2018-05-13T18:30:36.655Z,13.10
2018-05-13T18:33:04.098Z,13.00
2018-05-13T18:35:31.552Z,13.10
2018-05-13T18:37:58.988Z,13.00
2018-05-13T18:40:27.220Z,12.80
2018-05-13T18:42:54.656Z,12.80
2018-05-13T18:45:22.103Z,12.50
2018-05-13T18:47:49.560Z,12.60
2018-05-13T18:50:17.853Z,12.90
2018-05-13T18:52:45.260Z,12.90
2018-05-13T18:55:12.731Z,12.80
2018-05-13T18:57:40.152Z,12.80
2018-05-13T19:00:07.639Z,12.70
2018-05-13T19:02:35.087Z,12.70
2018-05-13T19:05:02.564Z,12.80
2018-05-13T19:07:30.008Z,13.00
2018-05-13T19:09:57.443Z,13.00
2018-05-13T19:12:24.969Z,13.00
2018-05-13T19:14:52.353Z,13.00
2018-05-13T19:17:20.580Z,13.00
2018-05-13T19:19:48.103Z,13.00
2018-05-13T19:22:16.327Z,13.00
2018-05-13T19:24:43.804Z,12.90
2018-05-13T19:27:11.247Z,12.90
2018-05-13T19:29:38.700Z,12.80
2018-05-13T19:32:06.158Z,12.80
2018-05-13T19:34:33.621Z,12.90
2018-05-13T19:37:01.080Z,12.80
2018-05-13T19:39:28.685Z,12.90
2018-05-13T19:41:56.153Z,12.90
2018-05-13T19:44:23.586Z,12.80
2018-05-13T19:46:51.046Z,12.80
2018-05-13T19:49:18.541Z,12.80
2018-05-13T19:51:46.024Z,12.90
2018-05-13T19:54:13.562Z,12.90
2018-05-13T19:56:40.923Z,12.90
2018-05-13T19:59:08.384Z,12.90
2018-05-13T20:01:35.849Z,12.90
2018-05-13T20:04:03.282Z,12.90
2018-05-13T20:06:30.724Z,12.90
2018-05-13T20:08:58.231Z,12.80
2018-05-13T20:11:25.633Z,12.90
2018-05-13T20:13:53.925Z,12.80
2018-05-13T20:16:21.374Z,12.80
2018-05-13T20:18:49.592Z,12.90
2018-05-13T20:21:17.028Z,12.80
2018-05-13T20:23:45.245Z,12.90
2018-05-13T20:26:12.693Z,12.90
2018-05-13T20:28:40.192Z,12.90
2018-05-13T20:31:08.427Z,12.90
2018-05-13T20:33:35.888Z,12.90
2018-05-13T20:36:03.381Z,12.80
2018-05-13T20:38:30.813Z,12.80
2018-05-13T20:40:58.266Z,12.80
2018-05-13T20:43:26.488Z,12.80
2018-05-13T20:45:53.928Z,12.80
2018-05-13T20:48:21.396Z,12.80
2018-05-13T20:50:48.855Z,12.80
2018-05-13T20:53:16.314Z,12.80
2018-05-13T20:55:43.750Z,12.90
2018-05-13T20:58:11.972Z,12.90
2018-05-13T21:00:39.418Z,12.90
2018-05-13T21:03:06.870Z,12.80
2018-05-13T21:05:34.368Z,12.80
2018-05-13T21:08:01.826Z,12.80
2018-05-13T21:10:29.280Z,12.90
2018-05-13T21:12:56.729Z,12.90
2018-05-13T21:15:24.186Z,12.90
2018-05-13T21:17:51.655Z,12.90
2018-05-13T21:20:19.111Z,12.90
2018-05-13T21:22:46.545Z,12.80
2018-05-13T21:25:14.764Z,12.70
2018-05-13T21:27:42.226Z,12.70
2018-05-13T21:30:09.775Z,12.70
2018-05-13T21:32:37.138Z,12.70
2018-05-13T21:35:04.598Z,12.70
2018-05-13T21:37:32.044Z,12.70
2018-05-13T21:40:00.266Z,12.60
2018-05-13T21:42:27.715Z,12.60
2018-05-13T21:44:55.191Z,12.60
2018-05-13T21:47:22.653Z,12.60
2018-05-13T21:49:50.113Z,12.50
2018-05-13T21:52:17.584Z,12.50
2018-05-13T21:54:45.040Z,12.60
2018-05-13T21:57:12.478Z,12.60
2018-05-13T21:59:39.940Z,12.60
2018-05-13T22:02:07.393Z,12.60
2018-05-13T22:04:34.839Z,12.70
2018-05-13T22:07:03.043Z,12.60
2018-05-13T22:09:30.480Z,12.60
2018-05-13T22:11:58.705Z,12.60
2018-05-13T22:14:26.148Z,12.60
2018-05-13T22:16:53.619Z,12.60
2018-05-13T22:19:21.059Z,12.50
2018-05-13T22:21:48.516Z,12.60
2018-05-13T22:24:15.961Z,12.50
2018-05-13T22:26:44.179Z,12.50
2018-05-13T22:29:11.644Z,12.50
2018-05-13T22:31:39.098Z,12.40
2018-05-13T22:34:06.539Z,12.40
2018-05-13T22:36:34.752Z,12.40
2018-05-13T22:39:02.187Z,12.40
2018-05-13T22:41:30.396Z,12.40
2018-05-13T22:43:57.844Z,12.40
2018-05-13T22:46:25.283Z,12.30
2018-05-13T22:48:53.517Z,12.30
2018-05-13T22:51:21.591Z,12.30
2018-05-13T22:53:49.033Z,12.30
2018-05-13T22:56:16.475Z,12.30
2018-05-13T22:58:43.940Z,12.30
2018-05-13T23:01:11.391Z,12.30
2018-05-13T23:03:39.597Z,12.30
2018-05-13T23:06:07.059Z,12.30
2018-05-13T23:08:34.492Z,12.20
2018-05-13T23:11:02.722Z,12.20
2018-05-13T23:13:30.164Z,12.20
2018-05-13T23:15:57.629Z,12.20
2018-05-13T23:18:25.071Z,12.20
2018-05-13T23:20:52.517Z,12.20
2018-05-13T23:23:19.961Z,12.20
2018-05-13T23:25:47.411Z,12.10
2018-05-13T23:28:14.868Z,12.10
2018-05-13T23:30:42.307Z,12.20
2018-05-13T23:33:09.752Z,12.20
2018-05-13T23:35:37.973Z,12.10
2018-05-13T23:38:05.422Z,12.10
2018-05-13T23:40:32.868Z,12.10
2018-05-13T23:43:00.328Z,12.10
2018-05-13T23:45:27.776Z,12.10
2018-05-13T23:47:55.991Z,12.10
2018-05-13T23:50:23.427Z,12.10
2018-05-13T23:52:50.895Z,12.10
2018-05-13T23:55:19.112Z,12.00
2018-05-13T23:57:46.603Z,12.10
